Time;durP1;ratioP1;P1;durP2;ratioP2;P2;SDS_P1;SDS_P2;PMS_P1;PMS_P2;Temp;Humidity;BMP_temperature;BMP_pressure;BME280_temperature;BME280_humidity;BME280_pressure;Samples;Min_cycle;Max_cycle;Signal;HPM_P1;HPM_P2
2022/01/26 00:00:29;;;;;;;46.53;22.25;;;3.70;90.10;;;;;;2100456;28;20421;-89
2022/01/26 00:06:34;;;;;;;47.33;22.77;;;3.70;89.80;;;;;;2098103;28;20045;-89
2022/01/26 00:07:36;;;;;;;45.90;22.42;;;3.80;89.80;;;;;;2098920;28;20036;-89
2022/01/26 00:08:38;;;;;;;49.15;23.95;;;3.70;89.70;;;;;;2098453;28;20045;-89
2022/01/26 00:09:38;;;;;;;48.10;23.90;;;3.70;89.70;;;;;;2089339;28;20052;-89
2022/01/26 00:10:39;;;;;;;50.10;24.83;;;3.70;89.80;;;;;;2087750;28;20045;-90
2022/01/26 00:11:40;;;;;;;46.97;23.05;;;3.70;89.80;;;;;;2075824;28;20120;-90
2022/01/26 00:12:41;;;;;;;49.63;24.63;;;3.70;89.90;;;;;;2077404;28;20209;-89
2022/01/26 00:13:41;;;;;;;50.20;25.60;;;3.70;89.90;;;;;;2089373;28;20415;-89
2022/01/26 00:14:43;;;;;;;47.50;23.30;;;3.70;89.90;;;;;;2089152;28;20124;-90
2022/01/26 00:15:44;;;;;;;48.85;23.70;;;3.70;90.00;;;;;;2080838;28;20029;-90
2022/01/26 00:16:45;;;;;;;48.05;24.58;;;3.70;90.00;;;;;;2081626;28;20423;-90
2022/01/26 00:17:46;;;;;;;48.85;24.50;;;3.70;90.00;;;;;;2082882;28;20445;-89
2022/01/26 00:18:46;;;;;;;47.30;23.70;;;3.70;90.00;;;;;;2080191;28;20033;-89
2022/01/26 00:19:56;;;;;;;54.25;26.15;;;3.70;90.00;;;;;;2089988;28;20037;-90
2022/01/26 00:21:14;;;;;;;50.63;24.92;;;3.60;89.90;;;;;;2098106;28;20044;-89
2022/01/26 00:22:33;;;;;;;47.78;24.45;;;3.70;90.00;;;;;;2085674;28;20148;-89
2022/01/26 00:24:06;;;;;;;47.15;22.85;;;3.70;90.00;;;;;;2097025;28;20068;-90
2022/01/26 00:26:37;;;;;;;48.08;23.60;;;3.60;89.90;;;;;;2089413;28;20132;-89
2022/01/26 00:27:51;;;;;;;46.28;23.40;;;3.60;89.80;;;;;;2101397;28;20506;-90
2022/01/26 00:31:12;;;;;;;49.72;23.67;;;3.60;90.20;;;;;;2082019;28;20034;-90
2022/01/26 00:39:14;;;;;;;45.00;21.38;;;3.60;89.80;;;;;;2093396;28;20043;-90
2022/01/26 00:40:35;;;;;;;46.45;22.00;;;3.60;89.80;;;;;;2097624;28;20048;-89
2022/01/26 00:41:37;;;;;;;;;;;3.60;89.80;;;;;;2093068;28;20044;-90
2022/01/26 00:42:41;;;;;;;43.63;20.02;;;3.60;89.80;;;;;;2106379;28;19956;-90
2022/01/26 00:43:50;;;;;;;41.40;21.08;;;3.60;89.70;;;;;;2092570;28;20152;-89
2022/01/26 00:44:51;;;;;;;42.47;20.65;;;3.60;89.70;;;;;;2083349;28;20050;-89
2022/01/26 00:45:56;;;;;;;44.42;21.60;;;3.60;89.80;;;;;;2095894;28;20032;-89
2022/01/26 00:46:58;;;;;;;42.38;21.08;;;3.60;89.80;;;;;;2097861;28;20041;-89
2022/01/26 00:48:03;;;;;;;43.08;22.13;;;3.60;89.80;;;;;;2091846;28;20499;-89
2022/01/26 00:49:04;;;;;;;47.10;22.90;;;3.60;89.80;;;;;;2084271;28;20060;-90
2022/01/26 00:50:10;;;;;;;46.97;23.08;;;3.60;89.80;;;;;;2084189;28;20096;-90
2022/01/26 00:51:15;;;;;;;50.10;23.90;;;3.60;89.80;;;;;;2091745;28;20032;-89
2022/01/26 00:52:25;;;;;;;50.63;24.38;;;3.60;89.80;;;;;;2092432;28;20064;-90
2022/01/26 00:53:32;;;;;;;;;;;3.60;89.80;;;;;;2093737;28;20033;-90
2022/01/26 00:54:34;;;;;;;53.72;23.13;;;3.60;89.80;;;;;;2099974;28;19916;-90
2022/01/26 00:55:35;;;;;;;49.03;23.75;;;3.60;89.80;;;;;;2096311;28;20127;-89
2022/01/26 00:56:36;;;;;;;52.72;25.27;;;3.60;89.70;;;;;;2091316;28;20033;-90
2022/01/26 00:57:37;;;;;;;48.60;23.17;;;3.60;89.70;;;;;;2097905;28;20037;-89
2022/01/26 00:58:38;;;;;;;50.58;24.80;;;3.60;89.70;;;;;;2096728;28;20182;-90
2022/01/26 00:59:38;;;;;;;48.22;23.13;;;3.50;89.70;;;;;;2097554;28;20033;-90
2022/01/26 01:00:39;;;;;;;48.17;24.05;;;3.50;89.70;;;;;;2104045;28;20044;-90
2022/01/26 01:01:40;;;;;;;51.50;24.67;;;3.50;89.80;;;;;;2091409;28;20100;-90
2022/01/26 01:02:40;;;;;;;49.92;23.98;;;3.50;89.80;;;;;;2097495;28;20120;-90
2022/01/26 01:03:44;;;;;;;48.33;24.42;;;3.50;89.80;;;;;;2090312;28;20040;-90
2022/01/26 01:04:45;;;;;;;51.55;23.92;;;3.50;89.90;;;;;;2080111;28;20116;-89
2022/01/26 01:06:02;;;;;;;51.17;24.83;;;3.50;90.20;;;;;;2083714;28;20042;-90
2022/01/26 01:07:05;;;;;;;51.55;24.35;;;3.50;89.90;;;;;;2097601;28;20032;-89
2022/01/26 01:08:12;;;;;;;47.47;23.48;;;3.50;89.90;;;;;;2093950;28;20033;-89
2022/01/26 01:09:12;;;;;;;54.03;24.58;;;3.50;89.90;;;;;;2098375;28;20040;-89
2022/01/26 01:10:16;;;;;;;49.17;23.48;;;3.50;89.90;;;;;;2082307;28;20077;-90
2022/01/26 01:11:17;;;;;;;50.10;24.35;;;3.50;89.90;;;;;;2085358;28;20445;-90
2022/01/26 01:12:18;;;;;;;51.60;24.05;;;3.50;89.80;;;;;;2089415;28;20052;-90
2022/01/26 01:13:23;;;;;;;55.47;25.45;;;3.50;89.90;;;;;;2097681;28;20503;-90
2022/01/26 01:14:24;;;;;;;47.53;22.73;;;3.50;89.90;;;;;;2097002;28;20108;-90
2022/01/26 01:15:28;;;;;;;48.67;22.73;;;3.50;89.90;;;;;;2079391;28;20622;-90
2022/01/26 01:16:29;;;;;;;51.40;24.15;;;3.50;89.90;;;;;;2081677;28;20041;-90
2022/01/26 01:17:36;;;;;;;49.05;23.17;;;3.50;89.90;;;;;;2090802;28;20044;-90
2022/01/26 01:18:47;;;;;;;51.75;24.83;;;3.50;89.90;;;;;;2093198;28;20036;-89
2022/01/26 01:20:06;;;;;;;48.50;23.70;;;3.50;90.00;;;;;;2097985;28;20028;-90
2022/01/26 01:29:24;;;;;;;49.00;23.98;;;3.50;89.90;;;;;;2076312;28;20042;-89
2022/01/26 01:30:32;;;;;;;49.97;23.02;;;3.50;89.80;;;;;;2078713;28;20037;-90
2022/01/26 01:31:57;;;;;;;45.88;22.42;;;3.50;89.90;;;;;;2093500;28;20059;-89
2022/01/26 01:34:04;;;;;;;52.78;24.58;;;3.50;89.80;;;;;;2085445;28;20036;-89
2022/01/26 01:35:08;;;;;;;53.33;24.52;;;3.50;89.80;;;;;;2081587;28;20034;-89
2022/01/26 01:36:11;;;;;;;49.50;23.60;;;3.50;89.80;;;;;;2089788;28;20052;-90
2022/01/26 01:37:15;;;;;;;53.05;24.23;;;3.50;89.80;;;;;;2098206;28;20056;-89
2022/01/26 01:38:18;;;;;;;52.33;24.45;;;3.40;89.80;;;;;;2097815;28;20127;-89
2022/01/26 01:39:21;;;;;;;51.70;24.50;;;3.50;89.80;;;;;;2096121;28;20124;-89
2022/01/26 01:40:22;;;;;;;48.97;23.75;;;3.40;89.90;;;;;;2095618;28;20029;-90
2022/01/26 01:41:23;;;;;;;51.05;24.40;;;3.40;89.90;;;;;;2078045;28;20117;-89
2022/01/26 01:42:23;;;;;;;51.53;24.58;;;3.40;90.00;;;;;;2081123;28;20100;-89
2022/01/26 01:43:24;;;;;;;48.65;23.60;;;3.50;90.00;;;;;;2074666;28;20037;-89
2022/01/26 01:44:25;;;;;;;48.00;23.40;;;3.40;90.00;;;;;;2076557;28;20044;-89
2022/01/26 01:45:37;;;;;;;47.15;23.88;;;3.50;90.10;;;;;;2087421;28;20035;-89
2022/01/26 01:46:41;;;;;;;49.78;24.35;;;3.50;90.00;;;;;;2074743;28;20377;-89
2022/01/26 01:47:41;;;;;;;50.35;24.70;;;3.50;90.00;;;;;;2081568;28;20085;-89
2022/01/26 01:48:42;;;;;;;46.08;23.05;;;3.50;90.00;;;;;;2089422;28;20033;-90
2022/01/26 01:49:43;;;;;;;46.03;22.48;;;3.50;90.00;;;;;;2076236;28;20033;-89
2022/01/26 01:50:45;;;;;;;48.80;24.58;;;3.50;90.00;;;;;;2072997;28;20058;-89
2022/01/26 01:51:52;;;;;;;43.88;22.50;;;3.50;90.00;;;;;;2076349;28;20045;-89
2022/01/26 01:52:59;;;;;;;46.13;21.95;;;3.50;90.00;;;;;;2082060;28;20176;-90
2022/01/26 01:54:01;;;;;;;46.33;22.52;;;3.50;90.00;;;;;;2090129;28;20037;-89
2022/01/26 01:55:04;;;;;;;46.45;21.80;;;3.50;90.00;;;;;;2096151;28;20047;-89
2022/01/26 01:56:07;;;;;;;45.85;22.58;;;3.50;90.00;;;;;;2093989;28;20119;-89
2022/01/26 01:57:07;;;;;;;46.08;22.27;;;3.50;90.00;;;;;;2100704;28;20062;-89
2022/01/26 01:58:10;;;;;;;47.22;22.83;;;3.50;90.00;;;;;;2097633;28;20119;-89
2022/01/26 01:59:11;;;;;;;44.15;22.10;;;3.50;90.00;;;;;;2080948;28;20037;-89
2022/01/26 02:00:12;;;;;;;46.33;22.55;;;3.60;90.00;;;;;;2079139;28;20089;-89
2022/01/26 02:01:13;;;;;;;48.10;23.73;;;3.50;90.00;;;;;;2080829;28;20438;-89
2022/01/26 02:02:14;;;;;;;44.92;22.83;;;3.50;90.00;;;;;;2080806;28;20049;-89
2022/01/26 02:03:14;;;;;;;47.92;23.10;;;3.50;90.00;;;;;;2073715;28;20512;-90
2022/01/26 02:04:15;;;;;;;46.95;23.35;;;3.50;90.00;;;;;;2082327;28;20107;-90
2022/01/26 02:05:16;;;;;;;43.70;22.48;;;3.50;90.00;;;;;;2094528;28;20048;-90
2022/01/26 02:06:17;;;;;;;44.17;22.20;;;3.50;90.00;;;;;;2089286;28;20514;-89
2022/01/26 02:07:17;;;;;;;43.38;21.25;;;3.50;90.00;;;;;;2086045;28;20037;-89
2022/01/26 02:08:18;;;;;;;45.97;22.08;;;3.50;90.00;;;;;;2089434;28;20462;-89
2022/01/26 02:09:19;;;;;;;43.30;21.90;;;3.50;90.00;;;;;;2088817;28;20036;-88
2022/01/26 02:10:23;;;;;;;49.72;23.42;;;3.50;90.00;;;;;;2089211;28;20033;-89
2022/01/26 02:11:23;;;;;;;46.60;22.90;;;3.50;90.00;;;;;;2092477;28;20511;-90
2022/01/26 02:12:26;;;;;;;48.70;22.77;;;3.50;90.00;;;;;;2081162;28;20033;-90
2022/01/26 02:13:32;;;;;;;44.30;23.08;;;3.50;90.00;;;;;;2089695;28;20071;-90
2022/01/26 02:14:37;;;;;;;45.45;22.23;;;3.50;90.00;;;;;;2088863;28;20056;-90
2022/01/26 02:16:00;;;;;;;42.38;21.40;;;3.60;90.00;;;;;;2079336;28;20041;-89
2022/01/26 02:17:13;;;;;;;53.35;24.55;;;3.50;90.00;;;;;;2084649;28;20064;-90
2022/01/26 02:50:03;;;;;;;42.92;20.55;;;3.50;90.00;;;;;;2089201;28;20556;-90
2022/01/26 02:52:36;;;;;;;40.60;19.50;;;3.50;90.00;;;;;;2089660;28;20048;-90
2022/01/26 02:56:17;;;;;;;40.70;19.13;;;3.50;90.00;;;;;;2086022;28;20037;-90
2022/01/26 03:01:49;;;;;;;42.60;20.13;;;3.50;90.00;;;;;;2050027;28;20051;-90
2022/01/26 03:05:04;;;;;;;46.70;21.30;;;3.50;90.00;;;;;;2094920;28;20503;-90
2022/01/26 03:06:10;;;;;;;40.90;20.33;;;3.50;90.00;;;;;;2090336;28;20029;-90
2022/01/26 03:08:11;;;;;;;44.83;22.25;;;3.50;90.00;;;;;;2106107;28;20032;-89
2022/01/26 03:09:16;;;;;;;45.60;22.30;;;3.50;90.00;;;;;;2095667;28;20128;-90
2022/01/26 03:11:33;;;;;;;46.65;21.42;;;3.50;90.10;;;;;;2085192;28;20032;-90
2022/01/26 03:12:48;;;;;;;46.97;22.63;;;3.50;90.10;;;;;;2085135;28;20506;-90
2022/01/26 03:13:56;;;;;;;47.22;21.80;;;3.50;90.10;;;;;;2091587;28;20044;-90
2022/01/26 03:15:01;;;;;;;44.97;22.10;;;3.50;90.10;;;;;;2092757;28;20041;-90
2022/01/26 03:16:14;;;;;;;47.13;22.13;;;3.50;90.10;;;;;;2107141;28;20028;-90
2022/01/26 03:19:36;;;;;;;44.70;21.25;;;3.50;90.10;;;;;;2087863;28;20064;-89
2022/01/26 03:20:39;;;;;;;43.40;21.00;;;3.50;90.10;;;;;;2080703;28;20067;-89
2022/01/26 03:21:56;;;;;;;48.13;22.45;;;3.50;90.20;;;;;;2099684;28;20372;-89
2022/01/26 03:28:22;;;;;;;45.47;22.33;;;3.50;90.20;;;;;;2085878;28;20634;-89
2022/01/26 03:29:40;;;;;;;47.90;22.70;;;3.50;90.10;;;;;;2085743;28;20103;-90
2022/01/26 03:34:59;;;;;;;49.03;23.02;;;3.50;90.20;;;;;;2097088;28;20064;-90
2022/01/26 03:36:01;;;;;;;48.88;23.60;;;3.50;90.20;;;;;;2081945;28;20057;-90
2022/01/26 03:37:07;;;;;;;47.60;22.80;;;3.50;90.20;;;;;;2078574;28;20104;-89
2022/01/26 03:38:16;;;;;;;50.53;24.80;;;3.50;90.20;;;;;;2083368;28;20041;-89
2022/01/26 03:39:20;;;;;;;48.47;23.63;;;3.50;90.20;;;;;;2097970;28;20040;-90
2022/01/26 03:40:29;;;;;;;50.05;23.80;;;3.50;90.20;;;;;;2099007;28;20305;-90
2022/01/26 03:41:38;;;;;;;46.85;22.33;;;3.50;90.30;;;;;;2090234;28;20079;-90
2022/01/26 03:42:40;;;;;;;46.63;22.75;;;3.50;90.30;;;;;;2083560;28;20494;-89
2022/01/26 03:43:41;;;;;;;50.13;23.80;;;3.50;90.30;;;;;;2090415;28;20037;-89
2022/01/26 03:44:43;;;;;;;48.10;22.90;;;3.50;90.30;;;;;;2079872;28;20045;-89
2022/01/26 03:45:43;;;;;;;48.25;22.98;;;3.50;90.30;;;;;;2073686;28;20530;-89
2022/01/26 03:46:46;;;;;;;50.38;24.35;;;3.50;90.30;;;;;;2085148;28;20033;-89
2022/01/26 03:47:46;;;;;;;48.42;23.55;;;3.50;90.30;;;;;;2090387;28;20103;-90
2022/01/26 03:48:47;;;;;;;52.35;24.73;;;3.50;90.30;;;;;;2104288;28;20056;-90
2022/01/26 03:49:48;;;;;;;46.55;23.23;;;3.50;90.30;;;;;;2089559;28;20430;-90
2022/01/26 03:50:48;;;;;;;48.20;23.58;;;3.50;90.30;;;;;;2078197;28;20120;-90
2022/01/26 03:51:49;;;;;;;49.20;23.95;;;3.50;90.30;;;;;;2090075;28;20041;-88
2022/01/26 03:52:50;;;;;;;51.47;24.90;;;3.50;90.30;;;;;;2106719;28;20032;-90
2022/01/26 03:53:51;;;;;;;49.83;24.75;;;3.50;90.30;;;;;;2106224;28;20074;-89
2022/01/26 03:54:52;;;;;;;50.20;24.50;;;3.60;90.30;;;;;;2098509;28;20118;-90
2022/01/26 03:55:52;;;;;;;47.85;24.65;;;3.50;90.30;;;;;;2092757;28;20154;-89
2022/01/26 03:56:53;;;;;;;50.28;24.88;;;3.60;90.30;;;;;;2088076;28;20037;-89
2022/01/26 03:57:55;;;;;;;50.20;24.42;;;3.60;90.30;;;;;;2079567;28;20053;-89
2022/01/26 03:58:56;;;;;;;50.88;25.08;;;3.60;90.30;;;;;;2093584;28;20059;-89
2022/01/26 03:59:56;;;;;;;49.42;23.88;;;3.50;90.30;;;;;;2103214;28;20028;-89
2022/01/26 04:00:57;;;;;;;48.22;23.60;;;3.60;90.30;;;;;;2088912;28;20087;-89
2022/01/26 04:01:58;;;;;;;48.92;24.10;;;3.60;90.30;;;;;;2087444;28;20033;-90
2022/01/26 04:02:59;;;;;;;50.10;24.77;;;3.60;90.40;;;;;;2089319;28;20060;-90
2022/01/26 04:04:00;;;;;;;52.47;25.23;;;3.60;90.40;;;;;;2072901;28;20030;-90
2022/01/26 04:05:04;;;;;;;52.45;24.65;;;3.60;90.40;;;;;;2074108;28;20544;-89
2022/01/26 04:06:05;;;;;;;50.55;24.58;;;3.60;90.40;;;;;;2083711;28;20579;-90
2022/01/26 04:07:05;;;;;;;49.95;24.40;;;3.60;90.40;;;;;;2084023;28;20049;-89
2022/01/26 04:08:13;;;;;;;50.88;25.25;;;3.60;90.40;;;;;;2085013;28;20030;-88
2022/01/26 04:09:15;;;;;;;53.65;25.38;;;3.60;90.60;;;;;;2090504;28;20052;-90
2022/01/26 04:10:27;;;;;;;51.42;24.33;;;3.60;90.40;;;;;;2084426;28;20129;-89
2022/01/26 04:12:29;;;;;;;48.17;23.48;;;3.60;90.40;;;;;;2102118;28;20055;-90
2022/01/26 04:13:30;;;;;;;51.38;24.67;;;3.60;90.30;;;;;;2095937;28;20041;-89
2022/01/26 04:14:33;;;;;;;52.20;25.33;;;3.60;90.40;;;;;;2104146;28;20025;-89
2022/01/26 04:15:35;;;;;;;50.90;25.25;;;3.60;90.40;;;;;;2091222;28;20043;-88
2022/01/26 04:16:37;;;;;;;51.17;24.20;;;3.60;90.30;;;;;;2080613;28;20126;-89
2022/01/26 04:17:37;;;;;;;50.47;23.95;;;3.60;90.30;;;;;;2088632;28;20101;-89
2022/01/26 04:18:40;;;;;;;49.30;24.75;;;3.60;90.30;;;;;;2094257;28;20044;-89
2022/01/26 04:19:41;;;;;;;48.03;24.10;;;3.70;90.40;;;;;;2091932;28;20067;-89
2022/01/26 04:20:46;;;;;;;51.70;25.77;;;3.60;90.60;;;;;;2072742;28;20026;-89
2022/01/26 04:23:09;;;;;;;53.03;25.13;;;3.70;90.40;;;;;;2100655;28;20045;-90
2022/01/26 04:24:37;;;;;;;56.03;26.40;;;3.70;90.40;;;;;;2088662;28;20032;-90
2022/01/26 04:25:31;;;;;;;;;;;3.70;90.40;;;;;;2084582;28;20048;-89
2022/01/26 04:26:42;;;;;;;48.63;22.90;;;3.70;90.40;;;;;;2084065;28;19978;-89
2022/01/26 04:27:47;;;;;;;46.70;22.73;;;3.70;90.30;;;;;;2083054;28;20065;-89
2022/01/26 04:29:02;;;;;;;47.95;23.70;;;3.70;90.30;;;;;;2083635;28;20128;-90
2022/01/26 04:30:03;;;;;;;48.70;23.73;;;3.70;90.30;;;;;;2074851;28;20034;-89
2022/01/26 04:31:03;;;;;;;47.88;23.40;;;3.70;90.30;;;;;;2083175;28;20034;-89
2022/01/26 04:32:06;;;;;;;51.60;24.13;;;3.70;90.30;;;;;;2098031;28;20130;-89
2022/01/26 04:33:07;;;;;;;51.55;24.92;;;3.70;90.30;;;;;;2089688;28;20116;-89
2022/01/26 04:34:08;;;;;;;49.17;24.40;;;3.70;90.40;;;;;;2076251;28;20507;-89
2022/01/26 04:35:10;;;;;;;52.15;24.92;;;3.70;90.40;;;;;;2089472;28;20084;-90
2022/01/26 04:36:14;;;;;;;51.83;25.50;;;3.70;90.40;;;;;;2089551;28;20061;-90
2022/01/26 04:39:31;;;;;;;49.50;24.20;;;3.70;90.40;;;;;;2097265;28;20390;-89
2022/01/26 04:40:38;;;;;;;52.03;24.90;;;3.70;90.40;;;;;;2097838;28;20037;-89
2022/01/26 04:42:02;;;;;;;49.00;23.60;;;3.70;90.40;;;;;;2089668;28;20029;-89
2022/01/26 04:43:08;;;;;;;51.88;24.73;;;3.70;90.40;;;;;;2084454;28;20048;-89
2022/01/26 04:44:21;;;;;;;49.90;25.75;;;3.70;90.40;;;;;;2087979;28;20033;-90
2022/01/26 04:45:22;;;;;;;49.05;24.38;;;3.70;90.40;;;;;;2092158;28;20105;-90
2022/01/26 04:46:24;;;;;;;51.72;25.02;;;3.70;90.40;;;;;;2089287;28;20045;-89
2022/01/26 04:47:25;;;;;;;51.95;25.48;;;3.70;90.40;;;;;;2090035;28;20072;-90
2022/01/26 04:48:26;;;;;;;53.20;25.25;;;3.70;90.40;;;;;;2089132;28;20128;-89
2022/01/26 04:49:27;;;;;;;49.58;24.25;;;3.70;90.40;;;;;;2075020;28;20411;-90
2022/01/26 04:50:28;;;;;;;49.97;24.80;;;3.70;90.40;;;;;;2081917;28;20037;-89
2022/01/26 04:51:30;;;;;;;53.25;25.67;;;3.70;90.40;;;;;;2081495;28;20026;-89
2022/01/26 04:52:31;;;;;;;50.33;25.33;;;3.70;90.40;;;;;;2081613;28;20408;-89
2022/01/26 04:53:31;;;;;;;50.78;24.90;;;3.70;90.40;;;;;;2089256;28;20040;-90
2022/01/26 04:54:32;;;;;;;49.65;24.63;;;3.70;90.40;;;;;;2082890;28;20045;-89
2022/01/26 04:55:33;;;;;;;50.75;25.20;;;3.70;90.50;;;;;;2090439;28;20043;-90
2022/01/26 04:56:33;;;;;;;54.05;25.98;;;3.70;90.50;;;;;;2083128;28;20507;-89
2022/01/26 04:57:34;;;;;;;53.40;26.65;;;3.70;90.50;;;;;;2089389;28;20087;-89
2022/01/26 04:58:35;;;;;;;56.70;27.30;;;3.70;90.50;;;;;;2080538;28;20121;-89
2022/01/26 04:59:35;;;;;;;50.78;25.58;;;3.70;90.50;;;;;;2076086;28;20038;-89
2022/01/26 05:00:36;;;;;;;52.28;25.65;;;3.70;90.50;;;;;;2089433;28;20429;-90
2022/01/26 05:01:37;;;;;;;55.03;26.33;;;3.70;90.50;;;;;;2088663;28;20032;-89
2022/01/26 05:02:37;;;;;;;51.33;26.02;;;3.70;90.50;;;;;;2090170;28;20057;-90
2022/01/26 05:03:38;;;;;;;51.42;25.98;;;3.70;90.50;;;;;;2091002;28;20073;-89
2022/01/26 05:04:39;;;;;;;55.67;26.73;;;3.70;90.50;;;;;;2087072;28;20119;-89
2022/01/26 05:05:40;;;;;;;52.08;26.27;;;3.70;90.50;;;;;;2086944;28;20044;-90
2022/01/26 05:06:41;;;;;;;53.50;26.50;;;3.70;90.50;;;;;;2098193;28;20410;-89
2022/01/26 05:07:41;;;;;;;53.38;26.13;;;3.70;90.50;;;;;;2094891;28;20037;-90
2022/01/26 05:08:42;;;;;;;51.13;25.48;;;3.70;90.50;;;;;;2074793;28;20049;-89
2022/01/26 05:09:43;;;;;;;52.47;26.63;;;3.70;90.50;;;;;;2073077;28;20030;-89
2022/01/26 05:10:44;;;;;;;52.75;25.75;;;3.70;90.50;;;;;;2081393;28;20491;-89
2022/01/26 05:11:47;;;;;;;53.72;27.10;;;3.70;90.50;;;;;;2085572;28;20033;-89
2022/01/26 05:12:48;;;;;;;51.30;26.15;;;3.70;90.50;;;;;;2089384;28;20037;-89
2022/01/26 05:13:50;;;;;;;54.47;26.73;;;3.70;90.50;;;;;;2089209;28;20522;-90
2022/01/26 05:14:51;;;;;;;54.05;26.95;;;3.70;90.60;;;;;;2103704;28;20040;-89
2022/01/26 05:15:51;;;;;;;51.58;25.73;;;3.70;90.60;;;;;;2095605;28;20125;-89
2022/01/26 05:16:52;;;;;;;51.60;26.25;;;3.70;90.50;;;;;;2087998;28;20120;-88
2022/01/26 05:17:53;;;;;;;52.15;25.58;;;3.70;90.60;;;;;;2097757;28;20075;-89
2022/01/26 05:18:54;;;;;;;52.22;25.73;;;3.70;90.60;;;;;;2091307;28;20074;-90
2022/01/26 05:19:57;;;;;;;52.10;26.05;;;3.70;90.60;;;;;;2088917;28;20059;-89
2022/01/26 05:20:58;;;;;;;54.42;26.35;;;3.70;90.60;;;;;;2081043;28;20550;-90
2022/01/26 05:21:59;;;;;;;54.03;26.25;;;3.70;90.60;;;;;;2080965;28;20117;-90
2022/01/26 05:23:00;;;;;;;55.63;26.30;;;3.70;90.60;;;;;;2096053;28;20036;-90
2022/01/26 05:24:00;;;;;;;51.95;26.48;;;3.70;90.60;;;;;;2097749;28;20035;-90
2022/01/26 05:25:01;;;;;;;54.97;26.10;;;3.60;90.60;;;;;;2097550;28;20040;-89
2022/01/26 05:26:02;;;;;;;50.60;26.20;;;3.60;90.60;;;;;;2098382;28;20127;-89
2022/01/26 05:27:03;;;;;;;52.75;25.63;;;3.70;90.70;;;;;;2082973;28;20491;-89
2022/01/26 05:28:03;;;;;;;53.55;26.55;;;3.60;90.60;;;;;;2089419;28;20529;-89
2022/01/26 05:29:05;;;;;;;55.90;27.45;;;3.60;90.60;;;;;;2093620;28;20083;-91
2022/01/26 05:30:07;;;;;;;55.88;27.35;;;3.60;90.60;;;;;;2089161;28;20506;-90
2022/01/26 05:31:08;;;;;;;56.17;27.35;;;3.60;90.60;;;;;;2081481;28;20056;-89
2022/01/26 05:32:08;;;;;;;54.88;27.02;;;3.70;90.60;;;;;;2088398;28;20032;-90
2022/01/26 05:33:09;;;;;;;55.35;27.45;;;3.60;90.60;;;;;;2086334;28;20045;-89
2022/01/26 05:34:10;;;;;;;60.13;28.85;;;3.60;90.60;;;;;;2084399;28;20037;-90
2022/01/26 05:35:11;;;;;;;56.03;26.95;;;3.70;90.60;;;;;;2086831;28;20072;-89
2022/01/26 05:36:12;;;;;;;60.38;29.02;;;3.60;90.30;;;;;;2080903;28;20136;-89
2022/01/26 05:37:12;;;;;;;53.08;26.85;;;3.60;90.60;;;;;;2085632;28;20107;-90
2022/01/26 05:38:13;;;;;;;58.15;27.77;;;3.60;90.60;;;;;;2089911;28;20562;-89
2022/01/26 05:39:14;;;;;;;56.90;27.73;;;3.60;90.60;;;;;;2083003;28;20095;-89
2022/01/26 05:40:14;;;;;;;60.65;29.60;;;3.60;90.60;;;;;;2080543;28;20183;-89
2022/01/26 05:41:15;;;;;;;57.97;28.30;;;3.60;90.60;;;;;;2077839;28;20499;-89
2022/01/26 05:42:17;;;;;;;58.78;28.77;;;3.60;90.50;;;;;;2078929;28;20121;-90
2022/01/26 05:43:18;;;;;;;61.03;29.58;;;3.60;90.60;;;;;;2091888;28;20036;-90
2022/01/26 05:44:18;;;;;;;59.83;28.55;;;3.60;90.50;;;;;;2099641;28;20037;-90
2022/01/26 05:45:26;;;;;;;57.13;28.00;;;3.60;90.50;;;;;;2102727;28;20040;-90
2022/01/26 05:46:36;;;;;;;58.85;28.85;;;3.60;90.50;;;;;;2088145;28;20049;-89
2022/01/26 05:47:36;;;;;;;57.63;28.58;;;3.60;90.60;;;;;;2097633;28;20155;-89
2022/01/26 05:48:44;;;;;;;55.15;27.08;;;3.60;90.60;;;;;;2097429;28;20040;-89
2022/01/26 05:49:45;;;;;;;56.72;27.52;;;3.60;90.60;;;;;;2095351;28;20406;-89
2022/01/26 05:51:04;;;;;;;56.92;28.10;;;3.60;90.60;;;;;;2087897;28;20033;-89
2022/01/26 05:52:05;;;;;;;60.05;28.45;;;3.60;90.60;;;;;;2083012;28;20042;-89
2022/01/26 05:53:05;;;;;;;57.42;27.13;;;3.60;90.60;;;;;;2093889;28;20041;-90
2022/01/26 05:54:08;;;;;;;58.42;27.70;;;3.60;90.80;;;;;;2089010;28;20094;-89
2022/01/26 05:55:09;;;;;;;57.42;27.58;;;3.60;90.60;;;;;;2090132;28;20037;-93
2022/01/26 05:56:09;;;;;;;55.97;28.02;;;3.60;90.60;;;;;;2094109;28;20410;-89
2022/01/26 05:57:10;;;;;;;57.80;28.08;;;3.60;90.60;;;;;;2091838;28;20124;-89
2022/01/26 05:58:10;;;;;;;58.75;28.63;;;3.60;90.60;;;;;;2098140;28;20037;-89
2022/01/26 05:59:11;;;;;;;57.42;27.98;;;3.60;90.60;;;;;;2095766;28;20068;-86
2022/01/26 06:00:13;;;;;;;57.28;27.48;;;3.60;90.60;;;;;;2085390;28;20523;-90
2022/01/26 06:01:14;;;;;;;59.47;28.83;;;3.60;90.60;;;;;;2076134;28;20076;-88
2022/01/26 06:02:15;;;;;;;58.88;28.67;;;3.60;90.60;;;;;;2078772;28;20045;-88
2022/01/26 06:03:16;;;;;;;62.60;29.70;;;3.60;90.60;;;;;;2079247;28;20060;-88
2022/01/26 06:04:18;;;;;;;62.17;29.48;;;3.60;90.60;;;;;;2079172;28;20052;-88
2022/01/26 06:05:18;;;;;;;60.55;29.55;;;3.60;90.60;;;;;;2095815;28;20055;-88
2022/01/26 06:06:19;;;;;;;59.83;29.60;;;3.60;90.60;;;;;;2085451;28;20139;-86
2022/01/26 06:07:20;;;;;;;60.88;29.77;;;3.60;90.60;;;;;;2072379;28;20037;-88
2022/01/26 06:08:21;;;;;;;62.10;29.10;;;3.60;90.60;;;;;;2088910;28;20048;-88
2022/01/26 06:09:22;;;;;;;57.03;29.20;;;3.60;90.60;;;;;;2104395;28;20458;-88
2022/01/26 06:10:22;;;;;;;61.08;29.60;;;3.60;90.60;;;;;;2097427;28;20036;-88
2022/01/26 06:11:23;;;;;;;64.10;30.48;;;3.60;90.60;;;;;;2097289;28;20028;-88
2022/01/26 06:12:24;;;;;;;61.20;28.70;;;3.60;90.60;;;;;;2103415;28;20040;-88
2022/01/26 06:13:24;;;;;;;60.20;29.08;;;3.60;90.60;;;;;;2090236;28;20512;-88
2022/01/26 06:14:25;;;;;;;61.70;29.00;;;3.60;90.60;;;;;;2082287;28;20499;-88
2022/01/26 06:15:26;;;;;;;55.78;27.50;;;3.60;90.60;;;;;;2106673;28;20114;-88
2022/01/26 06:16:27;;;;;;;55.30;27.60;;;3.60;90.60;;;;;;2100861;28;20028;-88
2022/01/26 06:17:28;;;;;;;58.78;27.98;;;3.60;90.90;;;;;;2089460;28;20041;-89
2022/01/26 06:18:28;;;;;;;61.05;30.00;;;3.60;90.60;;;;;;2090586;28;20575;-88
2022/01/26 06:19:29;;;;;;;61.08;30.60;;;3.60;90.60;;;;;;2090695;28;20040;-88
2022/01/26 06:20:29;;;;;;;60.95;30.20;;;3.60;90.60;;;;;;2073745;28;20077;-88
2022/01/26 06:21:30;;;;;;;63.20;30.75;;;3.60;90.60;;;;;;2082411;28;20120;-88
2022/01/26 06:22:33;;;;;;;60.58;30.05;;;3.60;90.60;;;;;;2098729;28;20132;-88
2022/01/26 06:23:33;;;;;;;59.45;28.88;;;3.60;90.60;;;;;;2082121;28;20499;-88
2022/01/26 06:24:34;;;;;;;58.80;29.25;;;3.60;90.60;;;;;;2073434;28;20123;-89
2022/01/26 06:25:35;;;;;;;61.53;30.63;;;3.60;90.70;;;;;;2082382;28;20036;-88
2022/01/26 06:26:36;;;;;;;61.45;29.75;;;3.60;90.70;;;;;;2073832;28;20038;-88
2022/01/26 06:27:38;;;;;;;58.50;28.52;;;3.60;90.70;;;;;;2082610;28;20466;-88
2022/01/26 06:28:39;;;;;;;61.38;29.75;;;3.60;90.70;;;;;;2098344;28;20041;-87
2022/01/26 06:29:39;;;;;;;66.28;31.05;;;3.60;90.70;;;;;;2096349;28;20487;-89
2022/01/26 06:30:45;;;;;;;66.07;31.13;;;3.60;90.70;;;;;;2099384;28;20395;-89
2022/01/26 06:31:45;;;;;;;66.85;30.90;;;3.50;90.70;;;;;;2098695;28;20032;-88
2022/01/26 06:32:47;;;;;;;69.50;31.85;;;3.60;90.70;;;;;;2094644;28;20086;-89
2022/01/26 06:33:48;;;;;;;63.92;31.10;;;3.60;90.70;;;;;;2090215;28;20467;-88
2022/01/26 06:34:49;;;;;;;62.20;30.02;;;3.50;90.60;;;;;;2063348;28;20081;-89
2022/01/26 06:35:49;;;;;;;67.93;32.25;;;3.50;90.70;;;;;;2065405;28;20030;-90
2022/01/26 06:36:50;;;;;;;66.88;32.08;;;3.50;90.90;;;;;;2088847;28;20060;-89
2022/01/26 06:37:51;;;;;;;60.38;30.40;;;3.50;90.70;;;;;;2095390;28;20475;-90
2022/01/26 06:38:51;;;;;;;62.28;30.20;;;3.50;90.70;;;;;;2098561;28;20120;-90
2022/01/26 06:39:52;;;;;;;66.13;32.28;;;3.50;90.70;;;;;;2098376;28;20498;-89
2022/01/26 06:40:53;;;;;;;72.85;34.40;;;3.50;90.70;;;;;;2090462;28;20037;-89
2022/01/26 06:41:55;;;;;;;60.55;30.25;;;3.50;90.70;;;;;;2098457;28;20036;-89
2022/01/26 06:43:00;;;;;;;66.05;32.50;;;3.50;90.70;;;;;;2082290;28;20037;-89
2022/01/26 06:44:08;;;;;;;64.55;31.27;;;3.50;90.70;;;;;;2067679;28;20046;-89
2022/01/26 06:45:16;;;;;;;63.88;30.73;;;3.50;90.70;;;;;;2083218;28;20053;-89
2022/01/26 06:46:27;;;;;;;59.58;28.75;;;3.50;90.70;;;;;;2084608;28;20076;-89
2022/01/26 06:49:32;;;;;;;61.80;29.83;;;3.50;90.70;;;;;;2082814;28;20030;-90
2022/01/26 06:50:34;;;;;;;59.78;28.60;;;3.50;90.70;;;;;;2086772;28;20025;-89
2022/01/26 06:51:35;;;;;;;66.45;31.05;;;3.50;90.70;;;;;;2082911;28;20037;-90
2022/01/26 06:52:36;;;;;;;64.85;30.65;;;3.50;90.80;;;;;;2090909;28;20502;-89
2022/01/26 06:53:36;;;;;;;65.95;31.83;;;3.50;90.80;;;;;;2098803;28;20523;-89